sensor_id;sensor_type;location;lat;lon;timestamp;temperature;humidity
2907;DHT22;1463;51.070;16.998;2023-06-14T00:01:49;15.10;99.90
2907;DHT22;1463;51.070;16.998;2023-06-14T00:04:17;15.10;99.90
2907;DHT22;1463;51.070;16.998;2023-06-14T00:06:46;15.10;99.90
2907;DHT22;1463;51.070;16.998;2023-06-14T00:09:14;15.10;99.90
2907;DHT22;1463;51.070;16.998;2023-06-14T00:11:43;15.10;99.90
2907;DHT22;1463;51.070;16.998;2023-06-14T00:14:11;15.00;99.90
2907;DHT22;1463;51.070;16.998;2023-06-14T00:16:39;15.00;99.90
2907;DHT22;1463;51.070;16.998;2023-06-14T00:19:08;15.00;99.90
2907;DHT22;1463;51.070;16.998;2023-06-14T00:21:38;15.00;99.90
2907;DHT22;1463;51.070;16.998;2023-06-14T00:24:07;14.90;99.90
2907;DHT22;1463;51.070;16.998;2023-06-14T00:26:34;15.00;99.90
2907;DHT22;1463;51.070;16.998;2023-06-14T00:29:02;14.90;99.90
2907;DHT22;1463;51.070;16.998;2023-06-14T00:31:30;14.90;99.90
2907;DHT22;1463;51.070;16.998;2023-06-14T00:33:57;14.90;99.90
2907;DHT22;1463;51.070;16.998;2023-06-14T00:36:24;14.70;99.90
2907;DHT22;1463;51.070;16.998;2023-06-14T00:38:53;14.80;99.90
2907;DHT22;1463;51.070;16.998;2023-06-14T00:41:20;14.70;99.90
2907;DHT22;1463;51.070;16.998;2023-06-14T00:43:48;14.70;99.90
2907;DHT22;1463;51.070;16.998;2023-06-14T00:46:15;14.70;99.90
2907;DHT22;1463;51.070;16.998;2023-06-14T00:48:43;14.60;99.90
2907;DHT22;1463;51.070;16.998;2023-06-14T00:51:10;14.70;99.90
2907;DHT22;1463;51.070;16.998;2023-06-14T00:53:38;14.70;99.90
2907;DHT22;1463;51.070;16.998;2023-06-14T00:56:08;14.60;99.90
2907;DHT22;1463;51.070;16.998;2023-06-14T00:58:35;14.50;99.90
2907;DHT22;1463;51.070;16.998;2023-06-14T01:01:03;14.50;99.90
2907;DHT22;1463;51.070;16.998;2023-06-14T01:03:30;14.50;99.90
2907;DHT22;1463;51.070;16.998;2023-06-14T01:06:04;14.50;99.90
2907;DHT22;1463;51.070;16.998;2023-06-14T01:08:44;14.30;99.90
2907;DHT22;1463;51.070;16.998;2023-06-14T01:11:22;14.30;99.90
2907;DHT22;1463;51.070;16.998;2023-06-14T01:13:52;14.30;99.90
2907;DHT22;1463;51.070;16.998;2023-06-14T01:16:20;14.30;99.90
2907;DHT22;1463;51.070;16.998;2023-06-14T01:18:48;14.20;99.90
2907;DHT22;1463;51.070;16.998;2023-06-14T01:21:22;14.20;99.90
2907;DHT22;1463;51.070;16.998;2023-06-14T01:23:51;14.20;99.90
2907;DHT22;1463;51.070;16.998;2023-06-14T01:26:20;14.20;99.90
2907;DHT22;1463;51.070;16.998;2023-06-14T01:28:49;14.20;99.90
2907;DHT22;1463;51.070;16.998;2023-06-14T01:31:20;14.10;99.90
2907;DHT22;1463;51.070;16.998;2023-06-14T01:33:49;14.20;99.90
2907;DHT22;1463;51.070;16.998;2023-06-14T01:36:17;14.20;99.90
2907;DHT22;1463;51.070;16.998;2023-06-14T01:38:46;14.10;99.90
2907;DHT22;1463;51.070;16.998;2023-06-14T01:41:18;14.00;99.90
2907;DHT22;1463;51.070;16.998;2023-06-14T01:43:48;14.00;99.90
2907;DHT22;1463;51.070;16.998;2023-06-14T01:46:16;14.00;99.90
2907;DHT22;1463;51.070;16.998;2023-06-14T01:48:44;14.00;99.90
2907;DHT22;1463;51.070;16.998;2023-06-14T01:51:11;14.00;99.90
2907;DHT22;1463;51.070;16.998;2023-06-14T01:53:38;14.10;99.90
2907;DHT22;1463;51.070;16.998;2023-06-14T01:56:06;14.10;99.90
2907;DHT22;1463;51.070;16.998;2023-06-14T01:58:36;14.10;99.90
2907;DHT22;1463;51.070;16.998;2023-06-14T02:01:03;14.20;99.90
2907;DHT22;1463;51.070;16.998;2023-06-14T02:03:31;14.10;99.90
2907;DHT22;1463;51.070;16.998;2023-06-14T02:05:58;14.10;99.90
2907;DHT22;1463;51.070;16.998;2023-06-14T02:08:26;14.10;99.90
2907;DHT22;1463;51.070;16.998;2023-06-14T02:10:53;14.10;99.90
2907;DHT22;1463;51.070;16.998;2023-06-14T02:13:21;14.00;99.90
2907;DHT22;1463;51.070;16.998;2023-06-14T02:15:49;14.00;99.90
2907;DHT22;1463;51.070;16.998;2023-06-14T02:18:20;14.10;99.90
2907;DHT22;1463;51.070;16.998;2023-06-14T02:20:48;14.00;99.90
2907;DHT22;1463;51.070;16.998;2023-06-14T02:23:15;14.00;99.90
2907;DHT22;1463;51.070;16.998;2023-06-14T02:25:43;13.90;99.90
2907;DHT22;1463;51.070;16.998;2023-06-14T02:28:10;13.80;99.90
2907;DHT22;1463;51.070;16.998;2023-06-14T02:30:38;13.80;99.90
2907;DHT22;1463;51.070;16.998;2023-06-14T02:33:08;13.80;99.90
2907;DHT22;1463;51.070;16.998;2023-06-14T02:35:38;13.80;99.90
2907;DHT22;1463;51.070;16.998;2023-06-14T02:38:05;13.80;99.90
2907;DHT22;1463;51.070;16.998;2023-06-14T02:40:33;13.80;99.90
2907;DHT22;1463;51.070;16.998;2023-06-14T02:43:00;13.90;99.90
2907;DHT22;1463;51.070;16.998;2023-06-14T02:45:27;13.90;99.90
2907;DHT22;1463;51.070;16.998;2023-06-14T02:47:55;14.10;99.90
2907;DHT22;1463;51.070;16.998;2023-06-14T02:50:24;14.10;99.90
2907;DHT22;1463;51.070;16.998;2023-06-14T02:52:51;14.10;99.90
2907;DHT22;1463;51.070;16.998;2023-06-14T02:55:21;14.10;99.90
2907;DHT22;1463;51.070;16.998;2023-06-14T02:57:49;14.10;99.90
2907;DHT22;1463;51.070;16.998;2023-06-14T03:00:17;14.00;99.90
2907;DHT22;1463;51.070;16.998;2023-06-14T03:02:45;13.90;99.90
2907;DHT22;1463;51.070;16.998;2023-06-14T03:05:12;13.90;99.90
2907;DHT22;1463;51.070;16.998;2023-06-14T03:07:41;14.00;99.90
2907;DHT22;1463;51.070;16.998;2023-06-14T03:10:11;13.90;99.90
2907;DHT22;1463;51.070;16.998;2023-06-14T03:12:39;14.00;99.90
2907;DHT22;1463;51.070;16.998;2023-06-14T03:15:07;14.00;99.90
2907;DHT22;1463;51.070;16.998;2023-06-14T03:17:35;14.00;99.90
2907;DHT22;1463;51.070;16.998;2023-06-14T03:20:05;14.00;99.90
2907;DHT22;1463;51.070;16.998;2023-06-14T03:22:34;14.00;99.90
2907;DHT22;1463;51.070;16.998;2023-06-14T03:25:03;14.10;99.90
2907;DHT22;1463;51.070;16.998;2023-06-14T03:27:31;14.10;99.90
2907;DHT22;1463;51.070;16.998;2023-06-14T03:29:58;14.10;99.90
2907;DHT22;1463;51.070;16.998;2023-06-14T03:32:26;14.10;99.90
2907;DHT22;1463;51.070;16.998;2023-06-14T03:34:53;14.10;99.90
2907;DHT22;1463;51.070;16.998;2023-06-14T03:37:21;14.10;99.90
2907;DHT22;1463;51.070;16.998;2023-06-14T03:39:48;14.20;99.90
2907;DHT22;1463;51.070;16.998;2023-06-14T03:42:17;14.20;99.90
2907;DHT22;1463;51.070;16.998;2023-06-14T03:44:45;14.10;99.90
2907;DHT22;1463;51.070;16.998;2023-06-14T03:47:12;14.20;99.90
2907;DHT22;1463;51.070;16.998;2023-06-14T03:49:39;14.20;99.90
2907;DHT22;1463;51.070;16.998;2023-06-14T03:52:07;14.40;99.90
2907;DHT22;1463;51.070;16.998;2023-06-14T03:54:34;14.40;99.90
2907;DHT22;1463;51.070;16.998;2023-06-14T03:57:02;14.40;99.90
2907;DHT22;1463;51.070;16.998;2023-06-14T03:59:30;14.40;99.90
2907;DHT22;1463;51.070;16.998;2023-06-14T04:01:58;14.40;99.90
2907;DHT22;1463;51.070;16.998;2023-06-14T04:04:25;14.50;99.90
2907;DHT22;1463;51.070;16.998;2023-06-14T04:06:55;14.50;99.90
2907;DHT22;1463;51.070;16.998;2023-06-14T04:09:24;14.60;99.90
2907;DHT22;1463;51.070;16.998;2023-06-14T04:11:52;14.60;99.90
2907;DHT22;1463;51.070;16.998;2023-06-14T04:14:19;14.70;99.90
2907;DHT22;1463;51.070;16.998;2023-06-14T04:16:49;14.80;99.90
2907;DHT22;1463;51.070;16.998;2023-06-14T04:19:16;14.90;99.90
2907;DHT22;1463;51.070;16.998;2023-06-14T04:21:43;15.00;99.90
2907;DHT22;1463;51.070;16.998;2023-06-14T04:24:11;15.00;99.90
2907;DHT22;1463;51.070;16.998;2023-06-14T04:26:50;15.10;99.90
2907;DHT22;1463;51.070;16.998;2023-06-14T04:29:20;15.10;99.90
2907;DHT22;1463;51.070;16.998;2023-06-14T04:31:51;15.00;99.90
2907;DHT22;1463;51.070;16.998;2023-06-14T04:34:19;15.00;99.90
2907;DHT22;1463;51.070;16.998;2023-06-14T04:36:47;14.90;99.90
2907;DHT22;1463;51.070;16.998;2023-06-14T04:39:19;14.90;99.90
2907;DHT22;1463;51.070;16.998;2023-06-14T04:41:47;14.90;99.90
2907;DHT22;1463;51.070;16.998;2023-06-14T04:44:18;14.90;99.90
2907;DHT22;1463;51.070;16.998;2023-06-14T04:46:46;15.00;99.90
2907;DHT22;1463;51.070;16.998;2023-06-14T04:49:15;15.00;99.90
2907;DHT22;1463;51.070;16.998;2023-06-14T04:51:44;15.00;99.90
2907;DHT22;1463;51.070;16.998;2023-06-14T04:54:13;14.90;99.90
2907;DHT22;1463;51.070;16.998;2023-06-14T04:56:41;15.10;99.90
2907;DHT22;1463;51.070;16.998;2023-06-14T04:59:08;15.20;99.90
2907;DHT22;1463;51.070;16.998;2023-06-14T05:01:37;15.30;99.90
2907;DHT22;1463;51.070;16.998;2023-06-14T05:04:05;15.40;99.90
2907;DHT22;1463;51.070;16.998;2023-06-14T05:06:33;15.40;99.90
2907;DHT22;1463;51.070;16.998;2023-06-14T05:09:02;15.30;99.90
2907;DHT22;1463;51.070;16.998;2023-06-14T05:11:29;15.30;99.90
2907;DHT22;1463;51.070;16.998;2023-06-14T05:13:57;15.30;99.90
2907;DHT22;1463;51.070;16.998;2023-06-14T05:16:25;15.10;99.90
2907;DHT22;1463;51.070;16.998;2023-06-14T05:18:55;15.10;99.90
2907;DHT22;1463;51.070;16.998;2023-06-14T05:21:22;15.20;99.90
2907;DHT22;1463;51.070;16.998;2023-06-14T05:23:51;15.20;99.90
2907;DHT22;1463;51.070;16.998;2023-06-14T05:26:20;15.20;99.90
2907;DHT22;1463;51.070;16.998;2023-06-14T05:28:49;15.30;99.90
2907;DHT22;1463;51.070;16.998;2023-06-14T05:31:18;15.30;99.90
2907;DHT22;1463;51.070;16.998;2023-06-14T05:33:46;15.30;99.90
2907;DHT22;1463;51.070;16.998;2023-06-14T05:36:14;15.60;99.90
2907;DHT22;1463;51.070;16.998;2023-06-14T05:38:41;15.80;99.90
2907;DHT22;1463;51.070;16.998;2023-06-14T05:41:10;15.80;99.90
2907;DHT22;1463;51.070;16.998;2023-06-14T05:43:38;15.90;99.90
2907;DHT22;1463;51.070;16.998;2023-06-14T05:46:05;16.00;99.90
2907;DHT22;1463;51.070;16.998;2023-06-14T05:48:32;15.90;99.90
2907;DHT22;1463;51.070;16.998;2023-06-14T05:51:00;16.10;99.90
2907;DHT22;1463;51.070;16.998;2023-06-14T05:53:27;16.10;99.90
2907;DHT22;1463;51.070;16.998;2023-06-14T05:55:55;16.20;99.90
2907;DHT22;1463;51.070;16.998;2023-06-14T05:58:24;16.20;99.90
2907;DHT22;1463;51.070;16.998;2023-06-14T06:00:51;16.20;99.90
2907;DHT22;1463;51.070;16.998;2023-06-14T06:03:19;16.20;99.90
2907;DHT22;1463;51.070;16.998;2023-06-14T06:05:46;16.30;99.90
2907;DHT22;1463;51.070;16.998;2023-06-14T06:08:14;16.30;99.90
2907;DHT22;1463;51.070;16.998;2023-06-14T06:10:42;16.20;99.90
2907;DHT22;1463;51.070;16.998;2023-06-14T06:13:10;16.20;99.90
2907;DHT22;1463;51.070;16.998;2023-06-14T06:15:39;16.10;99.90
2907;DHT22;1463;51.070;16.998;2023-06-14T06:18:07;16.10;99.90
2907;DHT22;1463;51.070;16.998;2023-06-14T06:20:34;16.10;99.90
2907;DHT22;1463;51.070;16.998;2023-06-14T06:23:02;16.10;99.90
2907;DHT22;1463;51.070;16.998;2023-06-14T06:25:29;16.40;99.90
2907;DHT22;1463;51.070;16.998;2023-06-14T06:27:57;16.50;99.90
2907;DHT22;1463;51.070;16.998;2023-06-14T06:30:25;16.50;99.90
2907;DHT22;1463;51.070;16.998;2023-06-14T06:32:54;16.50;99.90
2907;DHT22;1463;51.070;16.998;2023-06-14T06:35:22;16.70;99.90
2907;DHT22;1463;51.070;16.998;2023-06-14T06:37:50;16.70;99.90
2907;DHT22;1463;51.070;16.998;2023-06-14T06:40:18;16.70;99.90
2907;DHT22;1463;51.070;16.998;2023-06-14T06:42:45;16.70;99.90
2907;DHT22;1463;51.070;16.998;2023-06-14T06:45:12;16.80;99.90
2907;DHT22;1463;51.070;16.998;2023-06-14T06:47:40;17.00;99.90
2907;DHT22;1463;51.070;16.998;2023-06-14T06:50:09;17.30;99.90
2907;DHT22;1463;51.070;16.998;2023-06-14T06:52:37;17.40;99.90
2907;DHT22;1463;51.070;16.998;2023-06-14T06:55:05;17.40;99.90
2907;DHT22;1463;51.070;16.998;2023-06-14T06:57:32;17.40;99.90
2907;DHT22;1463;51.070;16.998;2023-06-14T07:00:00;17.20;99.90
2907;DHT22;1463;51.070;16.998;2023-06-14T07:02:28;17.20;99.90
2907;DHT22;1463;51.070;16.998;2023-06-14T07:04:56;17.10;99.90
2907;DHT22;1463;51.070;16.998;2023-06-14T07:07:25;17.00;99.90
2907;DHT22;1463;51.070;16.998;2023-06-14T07:09:53;16.90;99.90
2907;DHT22;1463;51.070;16.998;2023-06-14T07:12:23;16.80;99.90
2907;DHT22;1463;51.070;16.998;2023-06-14T07:14:50;17.00;99.90
2907;DHT22;1463;51.070;16.998;2023-06-14T07:17:18;17.10;99.90
2907;DHT22;1463;51.070;16.998;2023-06-14T07:19:45;17.40;99.90
2907;DHT22;1463;51.070;16.998;2023-06-14T07:22:13;17.50;99.90
2907;DHT22;1463;51.070;16.998;2023-06-14T07:24:42;17.60;99.90
2907;DHT22;1463;51.070;16.998;2023-06-14T07:27:09;17.70;99.90
2907;DHT22;1463;51.070;16.998;2023-06-14T07:29:39;18.00;99.90
2907;DHT22;1463;51.070;16.998;2023-06-14T07:32:07;18.30;99.90
2907;DHT22;1463;51.070;16.998;2023-06-14T07:34:34;18.20;99.90
2907;DHT22;1463;51.070;16.998;2023-06-14T07:37:03;18.10;99.90
2907;DHT22;1463;51.070;16.998;2023-06-14T07:39:31;18.10;99.90
2907;DHT22;1463;51.070;16.998;2023-06-14T07:42:00;18.10;99.90
2907;DHT22;1463;51.070;16.998;2023-06-14T07:44:30;18.20;99.90
2907;DHT22;1463;51.070;16.998;2023-06-14T07:46:58;18.20;99.90
2907;DHT22;1463;51.070;16.998;2023-06-14T07:49:26;18.20;99.90
2907;DHT22;1463;51.070;16.998;2023-06-14T07:51:54;18.20;99.90
2907;DHT22;1463;51.070;16.998;2023-06-14T07:54:21;18.30;99.90
2907;DHT22;1463;51.070;16.998;2023-06-14T07:56:52;18.20;99.90
2907;DHT22;1463;51.070;16.998;2023-06-14T07:59:21;18.30;99.90
2907;DHT22;1463;51.070;16.998;2023-06-14T08:01:48;18.40;99.90
2907;DHT22;1463;51.070;16.998;2023-06-14T08:04:15;18.30;99.90
2907;DHT22;1463;51.070;16.998;2023-06-14T08:06:43;18.30;99.90
2907;DHT22;1463;51.070;16.998;2023-06-14T08:09:13;18.30;99.90
2907;DHT22;1463;51.070;16.998;2023-06-14T08:11:40;18.30;99.90
2907;DHT22;1463;51.070;16.998;2023-06-14T08:14:08;18.20;99.90
2907;DHT22;1463;51.070;16.998;2023-06-14T08:16:37;18.20;99.90
2907;DHT22;1463;51.070;16.998;2023-06-14T08:19:04;18.20;99.90
2907;DHT22;1463;51.070;16.998;2023-06-14T08:21:32;18.40;99.90
2907;DHT22;1463;51.070;16.998;2023-06-14T08:24:02;18.60;99.90
2907;DHT22;1463;51.070;16.998;2023-06-14T08:26:30;18.70;99.90
2907;DHT22;1463;51.070;16.998;2023-06-14T08:28:58;18.80;99.90
2907;DHT22;1463;51.070;16.998;2023-06-14T08:31:25;19.00;99.90
2907;DHT22;1463;51.070;16.998;2023-06-14T08:33:54;19.10;99.90
2907;DHT22;1463;51.070;16.998;2023-06-14T08:36:22;19.10;99.90
2907;DHT22;1463;51.070;16.998;2023-06-14T08:38:49;19.00;99.90
2907;DHT22;1463;51.070;16.998;2023-06-14T08:41:21;18.90;99.90
2907;DHT22;1463;51.070;16.998;2023-06-14T08:43:50;18.80;99.90
2907;DHT22;1463;51.070;16.998;2023-06-14T08:46:18;18.60;99.90
2907;DHT22;1463;51.070;16.998;2023-06-14T08:48:49;18.50;99.90
2907;DHT22;1463;51.070;16.998;2023-06-14T08:51:20;18.40;99.90
2907;DHT22;1463;51.070;16.998;2023-06-14T08:53:52;18.30;99.90
2907;DHT22;1463;51.070;16.998;2023-06-14T08:56:24;18.30;99.90
2907;DHT22;1463;51.070;16.998;2023-06-14T08:58:53;18.40;99.90
2907;DHT22;1463;51.070;16.998;2023-06-14T09:01:22;18.70;99.90
2907;DHT22;1463;51.070;16.998;2023-06-14T09:03:51;19.00;99.90
2907;DHT22;1463;51.070;16.998;2023-06-14T09:06:22;19.30;99.90
2907;DHT22;1463;51.070;16.998;2023-06-14T09:08:50;19.50;99.90
2907;DHT22;1463;51.070;16.998;2023-06-14T09:11:18;19.50;99.90
2907;DHT22;1463;51.070;16.998;2023-06-14T09:13:46;19.40;99.90
2907;DHT22;1463;51.070;16.998;2023-06-14T09:16:14;19.30;99.90
2907;DHT22;1463;51.070;16.998;2023-06-14T09:18:43;19.20;99.90
2907;DHT22;1463;51.070;16.998;2023-06-14T09:21:14;19.00;99.90
2907;DHT22;1463;51.070;16.998;2023-06-14T09:23:44;18.80;99.90
2907;DHT22;1463;51.070;16.998;2023-06-14T09:26:13;18.70;99.90
2907;DHT22;1463;51.070;16.998;2023-06-14T09:28:44;18.80;99.90
2907;DHT22;1463;51.070;16.998;2023-06-14T09:31:13;18.80;99.90
2907;DHT22;1463;51.070;16.998;2023-06-14T09:33:42;18.90;99.90
2907;DHT22;1463;51.070;16.998;2023-06-14T09:36:15;18.80;99.90
2907;DHT22;1463;51.070;16.998;2023-06-14T09:38:51;18.70;99.90
2907;DHT22;1463;51.070;16.998;2023-06-14T09:41:20;18.60;99.90
2907;DHT22;1463;51.070;16.998;2023-06-14T09:43:47;18.60;99.90
2907;DHT22;1463;51.070;16.998;2023-06-14T09:46:16;18.60;99.90
2907;DHT22;1463;51.070;16.998;2023-06-14T09:48:44;18.60;99.90
2907;DHT22;1463;51.070;16.998;2023-06-14T09:51:14;18.50;99.90
2907;DHT22;1463;51.070;16.998;2023-06-14T09:53:47;18.40;99.90
2907;DHT22;1463;51.070;16.998;2023-06-14T09:56:18;18.40;99.90
2907;DHT22;1463;51.070;16.998;2023-06-14T09:58:49;18.30;99.90
2907;DHT22;1463;51.070;16.998;2023-06-14T10:01:21;18.40;99.90
2907;DHT22;1463;51.070;16.998;2023-06-14T10:03:51;18.40;99.90
2907;DHT22;1463;51.070;16.998;2023-06-14T10:06:21;18.30;99.90
2907;DHT22;1463;51.070;16.998;2023-06-14T10:08:52;18.20;99.90
2907;DHT22;1463;51.070;16.998;2023-06-14T10:11:21;18.20;99.90
2907;DHT22;1463;51.070;16.998;2023-06-14T10:13:48;18.20;99.90
2907;DHT22;1463;51.070;16.998;2023-06-14T10:16:34;18.30;99.90
2907;DHT22;1463;51.070;16.998;2023-06-14T10:19:24;18.40;99.90
2907;DHT22;1463;51.070;16.998;2023-06-14T10:22:05;18.50;99.90
2907;DHT22;1463;51.070;16.998;2023-06-14T10:24:41;18.40;99.90
2907;DHT22;1463;51.070;16.998;2023-06-14T10:27:14;18.40;99.90
2907;DHT22;1463;51.070;16.998;2023-06-14T10:30:06;18.50;99.90
2907;DHT22;1463;51.070;16.998;2023-06-14T10:32:36;18.60;99.90
2907;DHT22;1463;51.070;16.998;2023-06-14T10:35:24;18.60;99.90
2907;DHT22;1463;51.070;16.998;2023-06-14T10:37:53;18.70;99.90
2907;DHT22;1463;51.070;16.998;2023-06-14T10:40:47;18.80;99.90
2907;DHT22;1463;51.070;16.998;2023-06-14T10:43:27;18.90;99.90
2907;DHT22;1463;51.070;16.998;2023-06-14T10:46:19;19.00;99.90
2907;DHT22;1463;51.070;16.998;2023-06-14T10:48:57;19.00;99.90
2907;DHT22;1463;51.070;16.998;2023-06-14T10:51:25;19.00;99.90
2907;DHT22;1463;51.070;16.998;2023-06-14T10:53:59;19.00;99.90
2907;DHT22;1463;51.070;16.998;2023-06-14T10:56:33;19.20;99.90
2907;DHT22;1463;51.070;16.998;2023-06-14T10:59:01;19.20;99.90
2907;DHT22;1463;51.070;16.998;2023-06-14T11:01:47;19.20;99.90
2907;DHT22;1463;51.070;16.998;2023-06-14T11:04:20;19.20;99.90
2907;DHT22;1463;51.070;16.998;2023-06-14T11:06:49;19.00;99.90
2907;DHT22;1463;51.070;16.998;2023-06-14T11:09:41;18.80;99.90
2907;DHT22;1463;51.070;16.998;2023-06-14T11:12:12;18.80;99.90
2907;DHT22;1463;51.070;16.998;2023-06-14T11:14:40;18.90;99.90
2907;DHT22;1463;51.070;16.998;2023-06-14T11:17:07;18.90;99.90
2907;DHT22;1463;51.070;16.998;2023-06-14T11:19:36;19.00;99.90
2907;DHT22;1463;51.070;16.998;2023-06-14T11:22:05;19.00;99.90
2907;DHT22;1463;51.070;16.998;2023-06-14T11:24:33;18.90;99.90
2907;DHT22;1463;51.070;16.998;2023-06-14T11:27:00;18.90;99.90
2907;DHT22;1463;51.070;16.998;2023-06-14T11:29:29;18.90;99.90
2907;DHT22;1463;51.070;16.998;2023-06-14T11:31:57;19.00;99.90
2907;DHT22;1463;51.070;16.998;2023-06-14T11:34:25;19.00;99.90
2907;DHT22;1463;51.070;16.998;2023-06-14T11:36:53;19.20;99.90
2907;DHT22;1463;51.070;16.998;2023-06-14T11:39:25;19.20;99.90
2907;DHT22;1463;51.070;16.998;2023-06-14T11:41:53;19.20;99.90
2907;DHT22;1463;51.070;16.998;2023-06-14T11:44:21;19.10;99.90
2907;DHT22;1463;51.070;16.998;2023-06-14T11:46:50;19.20;99.90
2907;DHT22;1463;51.070;16.998;2023-06-14T11:49:18;19.10;99.90
2907;DHT22;1463;51.070;16.998;2023-06-14T11:51:46;19.10;99.90
2907;DHT22;1463;51.070;16.998;2023-06-14T11:54:16;19.10;99.90
2907;DHT22;1463;51.070;16.998;2023-06-14T11:56:43;19.20;99.90
2907;DHT22;1463;51.070;16.998;2023-06-14T11:59:13;19.30;99.90
2907;DHT22;1463;51.070;16.998;2023-06-14T12:01:43;19.50;99.90
2907;DHT22;1463;51.070;16.998;2023-06-14T12:04:12;19.80;99.90
2907;DHT22;1463;51.070;16.998;2023-06-14T12:06:40;20.10;99.90
2907;DHT22;1463;51.070;16.998;2023-06-14T12:09:09;20.20;99.90
2907;DHT22;1463;51.070;16.998;2023-06-14T12:11:39;20.30;99.90
2907;DHT22;1463;51.070;16.998;2023-06-14T12:14:08;20.50;99.90
2907;DHT22;1463;51.070;16.998;2023-06-14T12:16:38;20.70;99.90
2907;DHT22;1463;51.070;16.998;2023-06-14T12:21:40;20.70;99.90
2907;DHT22;1463;51.070;16.998;2023-06-14T12:24:08;20.60;99.90
2907;DHT22;1463;51.070;16.998;2023-06-14T12:26:38;20.60;99.90
2907;DHT22;1463;51.070;16.998;2023-06-14T12:29:07;20.50;99.90
2907;DHT22;1463;51.070;16.998;2023-06-14T12:31:36;20.40;99.90
2907;DHT22;1463;51.070;16.998;2023-06-14T12:34:03;20.40;99.90
2907;DHT22;1463;51.070;16.998;2023-06-14T12:36:31;20.30;99.90
2907;DHT22;1463;51.070;16.998;2023-06-14T12:38:59;20.30;99.90
2907;DHT22;1463;51.070;16.998;2023-06-14T12:41:27;20.30;99.90
2907;DHT22;1463;51.070;16.998;2023-06-14T12:43:55;20.30;99.90
2907;DHT22;1463;51.070;16.998;2023-06-14T12:46:25;20.20;99.90
2907;DHT22;1463;51.070;16.998;2023-06-14T12:48:52;20.00;99.90
2907;DHT22;1463;51.070;16.998;2023-06-14T12:51:20;20.00;99.90
2907;DHT22;1463;51.070;16.998;2023-06-14T12:53:48;20.00;99.90
2907;DHT22;1463;51.070;16.998;2023-06-14T12:56:17;20.00;99.90
2907;DHT22;1463;51.070;16.998;2023-06-14T12:58:45;20.20;99.90
2907;DHT22;1463;51.070;16.998;2023-06-14T13:01:12;20.30;99.90
2907;DHT22;1463;51.070;16.998;2023-06-14T13:03:40;20.40;99.90
2907;DHT22;1463;51.070;16.998;2023-06-14T13:06:08;20.60;99.90
2907;DHT22;1463;51.070;16.998;2023-06-14T13:08:36;20.70;99.90
2907;DHT22;1463;51.070;16.998;2023-06-14T13:11:03;20.80;99.90
2907;DHT22;1463;51.070;16.998;2023-06-14T13:13:32;20.50;99.90
2907;DHT22;1463;51.070;16.998;2023-06-14T13:16:00;20.30;99.90
2907;DHT22;1463;51.070;16.998;2023-06-14T13:18:27;20.30;99.90
2907;DHT22;1463;51.070;16.998;2023-06-14T13:20:55;20.30;99.90
2907;DHT22;1463;51.070;16.998;2023-06-14T13:23:22;20.40;99.90
2907;DHT22;1463;51.070;16.998;2023-06-14T13:25:49;20.40;99.90
2907;DHT22;1463;51.070;16.998;2023-06-14T13:28:17;20.40;99.90
2907;DHT22;1463;51.070;16.998;2023-06-14T13:30:48;20.30;99.90
2907;DHT22;1463;51.070;16.998;2023-06-14T13:33:15;20.20;99.90
2907;DHT22;1463;51.070;16.998;2023-06-14T13:35:43;20.10;99.90
2907;DHT22;1463;51.070;16.998;2023-06-14T13:38:10;20.10;99.90
2907;DHT22;1463;51.070;16.998;2023-06-14T13:40:38;20.00;99.90
2907;DHT22;1463;51.070;16.998;2023-06-14T13:43:05;20.00;99.90
2907;DHT22;1463;51.070;16.998;2023-06-14T13:45:33;20.00;99.90
2907;DHT22;1463;51.070;16.998;2023-06-14T13:48:02;20.10;99.90
2907;DHT22;1463;51.070;16.998;2023-06-14T13:54:01;20.10;99.90
2907;DHT22;1463;51.070;16.998;2023-06-14T13:56:28;20.10;99.90
2907;DHT22;1463;51.070;16.998;2023-06-14T13:58:57;20.10;99.90
2907;DHT22;1463;51.070;16.998;2023-06-14T14:01:27;20.10;99.90
2907;DHT22;1463;51.070;16.998;2023-06-14T14:03:57;20.20;99.90
2907;DHT22;1463;51.070;16.998;2023-06-14T14:06:26;20.40;99.90
2907;DHT22;1463;51.070;16.998;2023-06-14T14:08:53;20.50;99.90
2907;DHT22;1463;51.070;16.998;2023-06-14T14:11:21;20.50;99.90
2907;DHT22;1463;51.070;16.998;2023-06-14T14:13:49;20.50;99.90
2907;DHT22;1463;51.070;16.998;2023-06-14T14:16:16;20.50;99.90
2907;DHT22;1463;51.070;16.998;2023-06-14T14:18:45;20.30;99.90
2907;DHT22;1463;51.070;16.998;2023-06-14T14:21:14;20.30;99.90
2907;DHT22;1463;51.070;16.998;2023-06-14T14:23:41;20.40;99.90
2907;DHT22;1463;51.070;16.998;2023-06-14T14:26:09;20.40;99.90
2907;DHT22;1463;51.070;16.998;2023-06-14T14:28:37;20.40;99.90
2907;DHT22;1463;51.070;16.998;2023-06-14T14:31:05;20.40;99.90
2907;DHT22;1463;51.070;16.998;2023-06-14T14:33:32;20.50;99.90
2907;DHT22;1463;51.070;16.998;2023-06-14T14:36:00;20.50;99.90
2907;DHT22;1463;51.070;16.998;2023-06-14T14:38:31;20.40;99.90
2907;DHT22;1463;51.070;16.998;2023-06-14T14:40:59;20.30;99.90
2907;DHT22;1463;51.070;16.998;2023-06-14T14:43:26;20.20;99.90
2907;DHT22;1463;51.070;16.998;2023-06-14T14:45:56;20.10;99.90
2907;DHT22;1463;51.070;16.998;2023-06-14T14:48:24;20.00;99.90
2907;DHT22;1463;51.070;16.998;2023-06-14T14:50:52;19.80;99.90
2907;DHT22;1463;51.070;16.998;2023-06-14T14:53:20;19.70;99.90
2907;DHT22;1463;51.070;16.998;2023-06-14T14:55:49;19.70;99.90
2907;DHT22;1463;51.070;16.998;2023-06-14T14:58:17;19.70;99.90
2907;DHT22;1463;51.070;16.998;2023-06-14T15:00:45;19.70;99.90
2907;DHT22;1463;51.070;16.998;2023-06-14T15:03:12;19.60;99.90
2907;DHT22;1463;51.070;16.998;2023-06-14T15:05:40;19.50;99.90
2907;DHT22;1463;51.070;16.998;2023-06-14T15:08:07;19.50;99.90
2907;DHT22;1463;51.070;16.998;2023-06-14T15:10:38;19.40;99.90
2907;DHT22;1463;51.070;16.998;2023-06-14T15:13:08;19.40;99.90
2907;DHT22;1463;51.070;16.998;2023-06-14T15:15:36;19.30;99.90
2907;DHT22;1463;51.070;16.998;2023-06-14T15:18:04;19.20;99.90
2907;DHT22;1463;51.070;16.998;2023-06-14T15:20:31;19.20;99.90
2907;DHT22;1463;51.070;16.998;2023-06-14T15:22:59;19.00;99.90
2907;DHT22;1463;51.070;16.998;2023-06-14T15:25:27;19.00;99.90
2907;DHT22;1463;51.070;16.998;2023-06-14T15:27:55;18.70;99.90
2907;DHT22;1463;51.070;16.998;2023-06-14T15:30:24;18.60;99.90
2907;DHT22;1463;51.070;16.998;2023-06-14T15:32:51;18.60;99.90
2907;DHT22;1463;51.070;16.998;2023-06-14T15:35:19;18.50;99.90
2907;DHT22;1463;51.070;16.998;2023-06-14T15:37:48;18.50;99.90
2907;DHT22;1463;51.070;16.998;2023-06-14T15:40:15;18.50;99.90
2907;DHT22;1463;51.070;16.998;2023-06-14T15:42:43;18.50;99.90
2907;DHT22;1463;51.070;16.998;2023-06-14T15:45:10;18.30;99.90
2907;DHT22;1463;51.070;16.998;2023-06-14T15:47:39;18.20;99.90
2907;DHT22;1463;51.070;16.998;2023-06-14T15:50:07;18.30;99.90
2907;DHT22;1463;51.070;16.998;2023-06-14T15:52:35;18.40;99.90
2907;DHT22;1463;51.070;16.998;2023-06-14T15:55:04;18.40;99.90
2907;DHT22;1463;51.070;16.998;2023-06-14T15:57:33;18.50;99.90
2907;DHT22;1463;51.070;16.998;2023-06-14T16:00:01;18.40;99.90
2907;DHT22;1463;51.070;16.998;2023-06-14T16:02:29;18.50;99.90